createdAt,value
2019-03-01T00:01:07.422Z,-21432.66
2019-03-01T00:03:37.233Z,-21429.85
2019-03-01T00:06:14.486Z,-21517.56
2019-03-01T00:08:54.864Z,-21490.84
2019-03-01T00:11:28.846Z,-21493.22
2019-03-01T00:14:00.292Z,-21511.82
2019-03-01T00:16:37.757Z,-21507.49
2019-03-01T00:19:18.341Z,-21366.70
2019-03-01T00:21:55.692Z,-21372.77
2019-03-01T00:24:54.161Z,-21341.34
2019-03-01T00:27:45.084Z,-21345.43
2019-03-01T00:30:45.411Z,-21349.38
2019-03-01T00:33:33.541Z,-21337.11
2019-03-01T00:36:22.944Z,-21331.05
2019-03-01T00:39:13.853Z,-21331.32
2019-03-01T00:41:47.745Z,-21316.50
2019-03-01T00:44:44.181Z,-21308.32
2019-03-01T00:47:12.904Z,-21297.87
2019-03-01T00:49:41.313Z,-21359.52
2019-03-01T00:52:09.838Z,-21294.76
2019-03-01T00:54:38.167Z,-21300.13
2019-03-01T00:57:07.017Z,-21298.43
2019-03-01T00:59:35.278Z,-21297.45
2019-03-01T01:02:03.656Z,-21296.17
2019-03-01T01:04:31.939Z,-21305.64
2019-03-01T01:07:00.222Z,-21292.78
2019-03-01T01:09:28.569Z,-21312.55
2019-03-01T01:11:56.941Z,-21299.00
2019-03-01T01:14:25.203Z,-21307.89
2019-03-01T01:16:53.452Z,-21316.08
2019-03-01T01:19:21.728Z,-21307.33
2019-03-01T01:21:50.011Z,-21310.30
2019-03-01T01:24:18.291Z,-21326.67
2019-03-01T01:26:46.566Z,-21305.78
2019-03-01T01:29:14.832Z,-21322.29
2019-03-01T01:31:43.130Z,-21311.99
2019-03-01T01:34:11.403Z,-21318.20
2019-03-01T01:36:39.676Z,-21316.22
2019-03-01T01:39:08.588Z,-21304.65
2019-03-01T01:41:36.927Z,-21309.30
2019-03-01T01:44:05.477Z,-21303.66
2019-03-01T01:46:33.880Z,-21307.04
2019-03-01T01:49:02.260Z,-21310.86
2019-03-01T01:51:30.615Z,-21315.52
2019-03-01T01:53:58.905Z,-21308.32
2019-03-01T01:56:27.247Z,-21312.27
2019-03-01T01:58:55.501Z,-21314.11
2019-03-01T02:01:23.776Z,-21324.83
2019-03-01T02:03:52.180Z,-21397.25
2019-03-01T02:06:20.442Z,-21417.91
2019-03-01T02:08:48.691Z,-21409.34
2019-03-01T02:11:17.219Z,-21408.91
2019-03-01T02:13:45.496Z,-21309.17
2019-03-01T02:16:13.781Z,-21297.87
2019-03-01T02:18:42.055Z,-21294.05
2019-03-01T02:21:10.332Z,-21276.66
2019-03-01T02:23:40.110Z,-21295.32
2019-03-01T02:26:08.567Z,-21288.96
2019-03-01T02:28:36.845Z,-21349.23
2019-03-01T02:31:07.875Z,-21345.14
2019-03-01T02:33:36.122Z,-21412.57
2019-03-01T02:36:04.456Z,-21355.58
2019-03-01T02:38:32.739Z,-21356.00
2019-03-01T02:41:01.014Z,-21367.83
2019-03-01T02:43:29.280Z,-21370.79
2019-03-01T02:45:57.572Z,-21388.10
2019-03-01T02:48:25.862Z,-21328.79
2019-03-01T02:50:54.129Z,-21294.19
2019-03-01T02:53:22.389Z,-21304.93
2019-03-01T02:55:50.672Z,-21308.60
2019-03-01T02:58:18.938Z,-21280.34
2019-03-01T03:00:47.203Z,-21309.73
2019-03-01T03:03:15.579Z,-21280.90
2019-03-01T03:05:45.791Z,-21290.10
2019-03-01T03:08:14.087Z,-21367.27
2019-03-01T03:10:42.356Z,-21366.84
2019-03-01T03:13:10.641Z,-21319.34
2019-03-01T03:15:40.586Z,-21347.97
2019-03-01T03:18:08.933Z,-21362.48
2019-03-01T03:20:37.219Z,-21372.48
2019-03-01T03:23:05.522Z,-21388.24
2019-03-01T03:25:33.784Z,-21385.43
2019-03-01T03:28:02.111Z,-21422.82
2019-03-01T03:30:30.396Z,-21402.59
2019-03-01T03:32:58.700Z,-21367.97
2019-03-01T03:35:26.966Z,-21403.57
2019-03-01T03:37:55.242Z,-21370.79
2019-03-01T03:40:23.565Z,-21319.61
2019-03-01T03:42:51.858Z,-21368.82
2019-03-01T03:45:20.188Z,-21362.20
2019-03-01T03:47:48.473Z,-21345.43
2019-03-01T03:50:16.837Z,-21342.04
2019-03-01T03:52:45.164Z,-21314.95
2019-03-01T03:55:15.639Z,-21323.00
2019-03-01T03:57:43.920Z,-21323.28
2019-03-01T04:00:23.134Z,-21362.48
2019-03-01T04:02:51.489Z,-21356.14
2019-03-01T04:05:19.838Z,-21384.16
2019-03-01T04:07:48.119Z,-21360.36
2019-03-01T04:10:16.493Z,-21340.63
2019-03-01T04:12:44.749Z,-21423.81
2019-03-01T04:15:16.761Z,-21359.66
2019-03-01T04:17:45.045Z,-21365.57
2019-03-01T04:20:17.544Z,-21322.16
2019-03-01T04:22:45.905Z,-21348.95
2019-03-01T04:25:14.247Z,-21378.53
2019-03-01T04:27:42.494Z,-21377.41
2019-03-01T04:30:13.415Z,-21381.21
2019-03-01T04:32:41.679Z,-21359.24
2019-03-01T04:35:10.003Z,-21433.50
2019-03-01T04:37:38.366Z,-21455.24
2019-03-01T04:40:09.541Z,-21428.86
2019-03-01T04:42:37.809Z,-21431.95
2019-03-01T04:45:08.826Z,-21409.34
2019-03-01T04:47:37.111Z,-21380.78
2019-03-01T04:50:07.789Z,-21368.39
2019-03-01T04:52:36.211Z,-21412.43
2019-03-01T04:55:09.949Z,-21396.54
2019-03-01T04:57:38.226Z,-21399.78
2019-03-01T05:00:09.679Z,-21355.44
2019-03-01T05:02:37.965Z,-21485.51
2019-03-01T05:05:06.803Z,-21407.93
2019-03-01T05:07:35.082Z,-21437.99
2019-03-01T05:10:04.504Z,-21437.15
2019-03-01T05:12:32.769Z,-21423.67
2019-03-01T05:15:01.126Z,-21549.13
2019-03-01T05:17:29.398Z,-21432.93
2019-03-01T05:19:57.674Z,-21404.98
2019-03-01T05:22:25.952Z,-21389.51
2019-03-01T05:24:54.231Z,-21426.90
2019-03-01T05:27:22.530Z,-21398.37
2019-03-01T05:29:50.802Z,-21848.25
2019-03-01T05:32:19.099Z,-21747.51
2019-03-01T05:34:47.402Z,-21627.96
2019-03-01T05:37:15.673Z,-21647.69
2019-03-01T05:39:43.947Z,-21659.90
2019-03-01T05:42:12.290Z,-21641.86
2019-03-01T05:44:40.593Z,-21694.00
2019-03-01T05:47:08.862Z,-21645.61
2019-03-01T05:49:37.141Z,-21602.37
2019-03-01T05:52:05.420Z,-21590.96
2019-03-01T05:54:33.695Z,-21667.67
2019-03-01T05:57:01.993Z,-21635.32
2019-03-01T05:59:30.279Z,-21559.45
2019-03-01T06:02:07.692Z,-21582.32
2019-03-01T06:04:47.557Z,-21635.19
2019-03-01T06:07:43.381Z,-21567.96
2019-03-01T06:10:26.312Z,-21625.32
2019-03-01T06:13:17.070Z,-21584.41
2019-03-01T06:15:51.089Z,-21599.03
2019-03-01T06:18:43.735Z,-21607.94
2019-03-01T06:21:15.187Z,-21614.06
2019-03-01T06:24:03.233Z,-21656.43
2019-03-01T06:26:43.759Z,-21600.98
2019-03-01T06:29:27.227Z,-21604.60
2019-03-01T06:32:04.434Z,-21622.54
2019-03-01T06:34:47.757Z,-21605.85
2019-03-01T06:37:28.021Z,-21540.47
2019-03-01T06:40:23.412Z,-21550.80
2019-03-01T06:42:57.495Z,-21548.29
2019-03-01T06:45:41.120Z,-21619.06
2019-03-01T06:48:11.134Z,-21573.26
2019-03-01T06:50:43.737Z,-21563.78
2019-03-01T06:53:12.026Z,-21595.69
2019-03-01T06:55:42.566Z,-21640.46
2019-03-01T06:58:14.107Z,-21588.73
2019-03-01T07:00:50.207Z,-21616.42
2019-03-01T07:03:14.114Z,-21604.87
2019-03-01T07:05:42.387Z,-21577.02
2019-03-01T07:08:10.664Z,-21566.85
2019-03-01T07:10:38.955Z,-21532.52
2019-03-01T07:13:07.222Z,-21527.34
2019-03-01T07:15:35.764Z,-21554.85
2019-03-01T07:18:04.024Z,-21555.55
2019-03-01T07:20:32.322Z,-21582.73
2019-03-01T07:23:00.599Z,-21543.68
2019-03-01T07:25:28.893Z,-21529.30
2019-03-01T07:27:57.168Z,-21538.24
2019-03-01T07:30:25.456Z,-21590.81
2019-03-01T07:32:53.738Z,-21582.46
2019-03-01T07:35:22.101Z,-21559.45
2019-03-01T07:37:50.345Z,-21524.55
2019-03-01T07:40:18.656Z,-21553.18
2019-03-01T07:42:46.917Z,-21577.44
2019-03-01T07:45:15.274Z,-21555.55
2019-03-01T07:47:43.556Z,-21563.08
2019-03-01T07:50:14.790Z,-21558.06
2019-03-01T07:52:43.069Z,-21584.12
2019-03-01T07:55:12.021Z,-21550.67
2019-03-01T07:57:40.277Z,-21569.63
2019-03-01T08:00:14.257Z,-21589.43
2019-03-01T08:02:42.433Z,-21529.02
2019-03-01T08:05:13.501Z,-21551.08
2019-03-01T08:07:42.763Z,-21602.09
2019-03-01T08:10:20.645Z,-21612.95
2019-03-01T08:12:47.183Z,-21542.00
2019-03-01T08:15:17.236Z,-21553.45
2019-03-01T08:17:45.506Z,-21535.17
2019-03-01T08:20:15.732Z,-21526.08
2019-03-01T08:22:48.477Z,-21532.52
2019-03-01T08:25:14.055Z,-21575.63
2019-03-01T08:27:46.290Z,-21544.38
2019-03-01T08:30:16.782Z,-21493.50
2019-03-01T08:32:45.146Z,-21555.69
2019-03-01T08:35:17.858Z,-21523.71
2019-03-01T08:37:46.117Z,-21573.54
2019-03-01T08:40:19.038Z,-21534.89
2019-03-01T08:42:47.365Z,-21523.43
2019-03-01T08:45:17.580Z,-21530.56
2019-03-01T08:47:45.843Z,-21521.05
2019-03-01T08:50:15.781Z,-21516.58
2019-03-01T08:52:44.800Z,-21508.47
2019-03-01T08:55:30.652Z,-21546.33
2019-03-01T08:58:02.859Z,-21532.79
2019-03-01T09:00:34.353Z,-21560.71
2019-03-01T09:03:09.039Z,-21557.22
2019-03-01T09:05:37.414Z,-21562.52
2019-03-01T09:08:05.693Z,-21539.21
2019-03-01T09:10:33.983Z,-21510.43
2019-03-01T09:13:02.264Z,-21549.55
2019-03-01T09:15:30.549Z,-21537.54
2019-03-01T09:17:58.813Z,-21525.52
2019-03-01T09:20:27.067Z,-21571.72
2019-03-01T09:22:55.704Z,-21561.68
2019-03-01T09:25:23.987Z,-21580.64
2019-03-01T09:27:52.358Z,-21579.95
2019-03-01T09:30:23.049Z,-21582.32
2019-03-01T09:32:51.320Z,-21573.96
2019-03-01T09:35:29.865Z,-21580.92
2019-03-01T09:37:58.766Z,-21588.45
2019-03-01T09:40:28.841Z,-21546.20
2019-03-01T09:42:57.076Z,-21578.42
2019-03-01T09:45:25.450Z,-21560.15
2019-03-01T09:47:53.720Z,-21568.25
2019-03-01T09:50:24.725Z,-21583.85
2019-03-01T09:52:55.497Z,-21574.09
2019-03-01T09:55:22.996Z,-21556.25
2019-03-01T09:57:51.250Z,-21555.83
2019-03-01T10:00:31.792Z,-21568.66
2019-03-01T10:03:00.076Z,-21568.80
2019-03-01T10:05:28.496Z,-21564.34
2019-03-01T10:07:56.806Z,-21558.89
2019-03-01T10:10:27.791Z,-21555.69
2019-03-01T10:12:56.051Z,-21505.67
2019-03-01T10:15:24.364Z,-21525.52
2019-03-01T10:17:52.747Z,-21539.21
2019-03-01T10:20:20.998Z,-21547.59
2019-03-01T10:22:49.342Z,-21555.27
2019-03-01T10:25:19.703Z,-21547.32
2019-03-01T10:27:48.084Z,-21545.22
2019-03-01T10:30:26.690Z,-21595.82
2019-03-01T10:32:54.981Z,-21596.80
2019-03-01T10:35:23.257Z,-21605.57
2019-03-01T10:37:52.997Z,-21603.07
2019-03-01T10:40:28.198Z,-21587.89
2019-03-01T10:42:57.249Z,-21617.67
2019-03-01T10:45:32.298Z,-21570.34
2019-03-01T10:48:01.129Z,-21586.36
2019-03-01T10:50:29.412Z,-21544.80
2019-03-01T10:52:57.674Z,-21532.52
2019-03-01T10:55:25.963Z,-21603.07
2019-03-01T10:57:54.242Z,-21595.13
2019-03-01T11:00:27.639Z,-21594.29
2019-03-01T11:02:57.070Z,-21561.68
2019-03-01T11:05:26.082Z,-21552.48
2019-03-01T11:07:55.217Z,-21538.93
2019-03-01T11:10:37.682Z,-21598.47
2019-03-01T11:13:11.401Z,-21607.24
2019-03-01T11:15:39.687Z,-21570.47
2019-03-01T11:18:07.956Z,-21577.58
2019-03-01T11:20:36.244Z,-21575.91
2019-03-01T11:23:04.578Z,-21563.36
2019-03-01T11:25:33.009Z,-21579.67
2019-03-01T11:28:01.289Z,-21595.69
2019-03-01T11:30:32.386Z,-21598.33
2019-03-01T11:33:00.647Z,-21568.80
2019-03-01T11:35:28.974Z,-21563.91
2019-03-01T11:37:57.257Z,-21599.86
2019-03-01T11:40:36.352Z,-21609.75
2019-03-01T11:43:05.451Z,-21639.22
2019-03-01T11:45:33.788Z,-21633.93
2019-03-01T11:48:07.060Z,-21584.12
2019-03-01T11:50:35.498Z,-21592.21
2019-03-01T11:53:03.896Z,-21620.73
2019-03-01T11:55:32.181Z,-21589.14
2019-03-01T11:58:00.455Z,-21573.26
2019-03-01T12:00:29.576Z,-21591.79
2019-03-01T12:02:57.900Z,-21545.07
2019-03-01T12:05:26.229Z,-21553.88
2019-03-01T12:07:54.502Z,-21540.89
2019-03-01T12:10:32.360Z,-21561.12
2019-03-01T12:13:00.634Z,-21574.09
2019-03-01T12:15:28.912Z,-21586.92
2019-03-01T12:17:57.392Z,-21544.80
2019-03-01T12:20:27.543Z,-21551.36
2019-03-01T12:22:55.898Z,-21564.05
2019-03-01T12:25:24.335Z,-21566.29
2019-03-01T12:27:52.633Z,-21558.06
2019-03-01T12:30:23.287Z,-21565.45
2019-03-01T12:32:51.543Z,-21565.45
2019-03-01T12:35:20.882Z,-21573.68
2019-03-01T12:37:49.187Z,-21560.01
2019-03-01T12:40:20.649Z,-21577.71
2019-03-01T12:42:48.925Z,-21545.64
2019-03-01T12:45:17.298Z,-21546.61
2019-03-01T12:47:45.577Z,-21550.67
2019-03-01T12:50:15.466Z,-21540.19
2019-03-01T12:52:44.018Z,-21564.89
2019-03-01T12:55:20.653Z,-21560.99
2019-03-01T12:57:48.954Z,-21578.69
2019-03-01T13:00:32.015Z,-21565.03
2019-03-01T13:03:00.292Z,-21597.08
2019-03-01T13:05:30.285Z,-21558.20
2019-03-01T13:07:58.969Z,-21539.77
2019-03-01T13:10:30.230Z,-21539.08
2019-03-01T13:13:01.580Z,-21562.38
2019-03-01T13:15:28.523Z,-21509.73
2019-03-01T13:17:56.813Z,-21515.74
2019-03-01T13:20:25.116Z,-21547.32
2019-03-01T13:22:53.392Z,-21523.99
2019-03-01T13:25:21.672Z,-21524.96
2019-03-01T13:27:52.513Z,-21513.64
2019-03-01T13:30:27.327Z,-21547.59
2019-03-01T13:32:59.043Z,-21548.16
2019-03-01T13:35:27.232Z,-21551.08
2019-03-01T13:37:56.798Z,-21579.95
2019-03-01T13:40:25.549Z,-21579.11
2019-03-01T13:42:54.021Z,-21584.41
2019-03-01T13:45:26.236Z,-21548.43
2019-03-01T13:47:54.531Z,-21545.91
2019-03-01T13:50:23.273Z,-21550.67
2019-03-01T13:52:51.633Z,-21545.78
2019-03-01T13:55:22.259Z,-21554.29
2019-03-01T13:57:51.404Z,-21542.84
2019-03-01T14:00:21.877Z,-21558.34
2019-03-01T14:02:50.520Z,-21539.64
2019-03-01T14:05:19.054Z,-21515.04
2019-03-01T14:07:55.280Z,-21527.34
2019-03-01T14:10:23.254Z,-21544.66
2019-03-01T14:12:51.684Z,-21588.87
2019-03-01T14:15:20.019Z,-21552.62
2019-03-01T14:17:51.249Z,-21574.79
2019-03-01T14:20:21.243Z,-21535.86
2019-03-01T14:22:50.305Z,-21553.32
2019-03-01T14:25:18.657Z,-21560.85
2019-03-01T14:27:47.031Z,-21548.99
2019-03-01T14:30:25.211Z,-21562.10
2019-03-01T14:32:57.648Z,-21534.05
2019-03-01T14:35:26.928Z,-21534.75
2019-03-01T14:40:43.430Z,-21513.93
2019-03-01T14:43:12.408Z,-21498.39
2019-03-01T14:45:41.705Z,-21518.54
2019-03-01T14:48:10.682Z,-21513.64
2019-03-01T14:50:38.977Z,-21502.59
2019-03-01T14:53:10.698Z,-21524.55
2019-03-01T14:56:04.030Z,-21546.89
2019-03-01T14:58:47.425Z,-21532.93
2019-03-01T15:01:26.683Z,-21549.41
2019-03-01T15:03:54.886Z,-21562.80
2019-03-01T15:06:23.134Z,-21534.46
2019-03-01T15:08:51.413Z,-21529.44
2019-03-01T15:11:19.755Z,-21503.01
2019-03-01T15:13:48.130Z,-21533.21
2019-03-01T15:16:16.479Z,-21526.50
2019-03-01T15:18:44.843Z,-21562.52
2019-03-01T15:21:14.152Z,-21518.12
2019-03-01T15:23:42.417Z,-21523.57
2019-03-01T15:26:10.694Z,-21511.41
2019-03-01T15:28:42.138Z,-21513.37
2019-03-01T15:31:10.525Z,-21498.39
2019-03-01T15:33:48.763Z,-21476.27
2019-03-01T15:39:10.786Z,-21492.66
2019-03-01T15:41:41.998Z,-21475.43
2019-03-01T15:44:09.100Z,-21467.86
2019-03-01T15:46:37.453Z,-21492.94
2019-03-01T15:49:05.749Z,-21496.02
2019-03-01T15:51:34.715Z,-21506.09
2019-03-01T15:54:04.046Z,-21508.47
2019-03-01T15:56:32.321Z,-21503.99
2019-03-01T15:59:00.622Z,-21495.18
2019-03-01T16:01:28.865Z,-21467.03
2019-03-01T16:03:57.956Z,-21464.50
2019-03-01T16:06:26.382Z,-21463.94
2019-03-01T16:08:54.772Z,-21490.84
2019-03-01T16:11:23.051Z,-21497.42
2019-03-01T16:13:51.318Z,-21474.73
2019-03-01T16:16:19.630Z,-21497.55
2019-03-01T16:18:47.891Z,-21476.70
2019-03-01T16:21:16.178Z,-21484.82
2019-03-01T16:23:44.443Z,-21506.51
2019-03-01T16:26:12.759Z,-21500.36
2019-03-01T16:28:40.996Z,-21473.61
2019-03-01T16:31:09.283Z,-21493.36
2019-03-01T16:33:37.568Z,-21461.27
2019-03-01T16:36:07.474Z,-21467.17
2019-03-01T16:38:40.875Z,-21461.42
2019-03-01T16:41:07.725Z,-21471.37
2019-03-01T16:43:35.779Z,-21490.70
2019-03-01T16:46:04.107Z,-21491.68
2019-03-01T16:48:32.452Z,-21484.68
2019-03-01T16:51:00.742Z,-21473.75
2019-03-01T16:53:29.002Z,-21497.84
2019-03-01T16:55:59.239Z,-21500.49
2019-03-01T16:58:28.206Z,-21468.15
2019-03-01T17:00:57.221Z,-21454.97
2019-03-01T17:03:25.540Z,-21474.87
2019-03-01T17:05:55.114Z,-21459.03
2019-03-01T17:08:23.560Z,-21498.82
2019-03-01T17:10:51.884Z,-21476.13
2019-03-01T17:13:20.137Z,-21481.18
2019-03-01T17:15:49.218Z,-21479.21
2019-03-01T17:18:17.573Z,-21507.35
2019-03-01T17:20:45.846Z,-21492.80
2019-03-01T17:23:14.123Z,-21489.02
2019-03-01T17:25:42.447Z,-21476.97
2019-03-01T17:28:10.707Z,-21486.07
2019-03-01T17:30:38.992Z,-21477.39
2019-03-01T17:33:09.674Z,-21483.14
2019-03-01T17:35:37.724Z,-21504.55
2019-03-01T17:38:08.285Z,-21507.62
2019-03-01T17:40:36.675Z,-21493.78
2019-03-01T17:43:05.043Z,-21503.71
2019-03-01T17:45:33.332Z,-21517.56
2019-03-01T17:48:01.626Z,-21493.78
2019-03-01T17:50:29.894Z,-21496.30
2019-03-01T17:52:58.192Z,-21474.59
2019-03-01T17:55:27.891Z,-21480.89
2019-03-01T17:57:56.181Z,-21482.58
2019-03-01T18:00:38.169Z,-21474.73
2019-03-01T18:03:06.529Z,-21477.95
2019-03-01T18:05:36.899Z,-21495.59
2019-03-01T18:08:05.056Z,-21486.49
2019-03-01T18:10:33.348Z,-21490.14
2019-03-01T18:13:01.616Z,-21485.23
2019-03-01T18:15:29.968Z,-21496.44
2019-03-01T18:17:58.240Z,-21489.44
2019-03-01T18:20:26.549Z,-21492.38
2019-03-01T18:22:54.819Z,-21484.95
2019-03-01T18:25:26.229Z,-21500.63
2019-03-01T18:27:53.872Z,-21476.97
2019-03-01T18:30:31.428Z,-21456.37
2019-03-01T18:32:59.708Z,-21504.55
2019-03-01T18:35:27.977Z,-21480.62
2019-03-01T18:37:56.345Z,-21483.14
2019-03-01T18:40:24.607Z,-21474.31
2019-03-01T18:42:52.909Z,-21476.13
2019-03-01T18:45:27.619Z,-21461.00
2019-03-01T18:47:56.048Z,-21462.25
2019-03-01T18:50:32.581Z,-21464.78
2019-03-01T18:53:03.731Z,-21495.18
2019-03-01T18:55:36.956Z,-21488.88
2019-03-01T18:58:13.911Z,-21491.26
2019-03-01T19:00:45.974Z,-21496.57
2019-03-01T19:03:17.406Z,-21498.67
2019-03-01T19:05:45.667Z,-21489.44
2019-03-01T19:08:14.571Z,-21500.78
2019-03-01T19:10:42.864Z,-21481.60
2019-03-01T19:13:12.520Z,-21504.13
2019-03-01T19:15:41.012Z,-21490.42
2019-03-01T19:18:09.280Z,-21498.95
2019-03-01T19:20:43.450Z,-21508.75
2019-03-01T19:23:11.752Z,-21507.62
2019-03-01T19:25:40.015Z,-21521.47
2019-03-01T19:28:08.299Z,-21497.42
2019-03-01T19:30:36.629Z,-21500.36
2019-03-01T19:33:04.912Z,-21503.01
2019-03-01T19:35:33.204Z,-21493.07
2019-03-01T19:38:01.548Z,-21477.39
2019-03-01T19:40:29.826Z,-21489.72
2019-03-01T19:42:58.110Z,-21481.60
2019-03-01T19:45:27.258Z,-21466.88
2019-03-01T19:48:01.420Z,-21499.38
2019-03-01T19:50:27.438Z,-21485.38
2019-03-01T19:52:55.707Z,-21484.82
2019-03-01T19:55:24.039Z,-21478.65
2019-03-01T19:57:52.311Z,-21475.85
2019-03-01T20:00:23.496Z,-21464.36
2019-03-01T20:02:51.797Z,-21454.13
2019-03-01T20:05:22.612Z,-21445.71
2019-03-01T20:07:51.747Z,-21442.62
2019-03-01T20:10:20.952Z,-21447.82
2019-03-01T20:12:49.299Z,-21468.15
2019-03-01T20:15:22.223Z,-21470.11
2019-03-01T20:17:50.485Z,-21477.54
2019-03-01T20:20:20.976Z,-21465.62
2019-03-01T20:22:50.560Z,-21474.03
2019-03-01T20:25:20.025Z,-21434.06
2019-03-01T20:27:48.364Z,-21462.12
2019-03-01T20:30:30.320Z,-21430.69
2019-03-01T20:32:57.371Z,-21448.38
2019-03-01T20:35:26.207Z,-21450.34
2019-03-01T20:37:54.581Z,-21464.92
2019-03-01T20:40:26.819Z,-21434.62
2019-03-01T20:42:56.008Z,-21461.83
2019-03-01T20:45:34.891Z,-21425.50
2019-03-01T20:48:03.492Z,-21424.52
2019-03-01T20:50:31.759Z,-21444.31
2019-03-01T20:53:00.021Z,-21445.57
2019-03-01T20:55:28.307Z,-21441.78
2019-03-01T20:57:59.844Z,-21455.66
2019-03-01T21:00:29.804Z,-21412.71
2019-03-01T21:02:57.635Z,-21413.13
2019-03-01T21:05:28.973Z,-21396.96
2019-03-01T21:07:56.004Z,-21387.96
2019-03-01T21:10:29.719Z,-21416.50
2019-03-01T21:12:57.991Z,-21412.99
2019-03-01T21:15:26.458Z,-21416.36
2019-03-01T21:17:57.099Z,-21429.43
2019-03-01T21:20:24.848Z,-21415.09
2019-03-01T21:22:53.165Z,-21459.31
2019-03-01T21:25:22.902Z,-21424.37
2019-03-01T21:27:51.196Z,-21441.36
2019-03-01T21:30:29.827Z,-21419.88
2019-03-01T21:32:58.195Z,-21413.55
2019-03-01T21:35:26.471Z,-21452.30
2019-03-01T21:37:54.759Z,-21469.69
2019-03-01T21:40:23.040Z,-21465.62
2019-03-01T21:42:52.865Z,-21437.15
2019-03-01T21:45:25.651Z,-21437.15
2019-03-01T21:47:54.123Z,-21460.02
2019-03-01T21:50:22.424Z,-21466.32
2019-03-01T21:52:50.718Z,-21438.97
2019-03-01T21:55:21.060Z,-21463.10
2019-03-01T21:57:49.924Z,-21481.03
2019-03-01T22:00:25.306Z,-21480.75
2019-03-01T22:02:54.305Z,-21478.09
2019-03-01T22:05:22.698Z,-21455.11
2019-03-01T22:07:50.991Z,-21462.54
2019-03-01T22:10:19.252Z,-21458.61
2019-03-01T22:12:47.533Z,-21459.03
2019-03-01T22:15:28.282Z,-21452.02
2019-03-01T22:17:56.955Z,-21447.25
2019-03-01T22:20:25.342Z,-21474.73
2019-03-01T22:22:53.576Z,-21465.06
2019-03-01T22:25:21.870Z,-21447.82
2019-03-01T22:27:50.122Z,-21458.89
2019-03-01T22:30:33.881Z,-21445.99
2019-03-01T22:33:02.142Z,-21422.55
2019-03-01T22:35:30.430Z,-21427.18
2019-03-01T22:38:00.907Z,-21443.60
2019-03-01T22:40:29.424Z,-21437.29
2019-03-01T22:42:57.895Z,-21452.86
2019-03-01T22:45:26.238Z,-21480.20
2019-03-01T22:47:54.572Z,-21471.51
2019-03-01T22:50:22.927Z,-21448.38
2019-03-01T22:52:51.186Z,-21448.24
2019-03-01T22:55:20.193Z,-21468.84
2019-03-01T22:57:48.528Z,-21489.44
2019-03-01T23:00:49.919Z,-21492.10
2019-03-01T23:03:20.080Z,-21459.17
2019-03-01T23:05:48.456Z,-21462.12
2019-03-01T23:08:17.362Z,-21403.57
2019-03-01T23:10:45.679Z,-21447.53
2019-03-01T23:13:16.984Z,-21440.09
2019-03-01T23:15:44.556Z,-21433.36
2019-03-01T23:18:13.123Z,-21450.20
2019-03-01T23:20:41.667Z,-21489.30
2019-03-01T23:23:09.950Z,-21468.71
2019-03-01T23:25:42.853Z,-21475.71
2019-03-01T23:28:09.885Z,-21459.17
2019-03-01T23:30:38.410Z,-21459.45
2019-03-01T23:33:06.691Z,-21473.47
2019-03-01T23:35:35.350Z,-21432.09
2019-03-01T23:38:05.291Z,-21403.57
2019-03-01T23:40:35.861Z,-21467.86
2019-03-01T23:43:03.546Z,-21430.55
2019-03-01T23:45:31.820Z,-21447.67
2019-03-01T23:48:00.101Z,-21452.86
2019-03-01T23:50:31.511Z,-21466.04
2019-03-01T23:52:59.069Z,-21450.34
2019-03-01T23:55:28.251Z,-21413.13
2019-03-01T23:58:05.536Z,-21418.75
